Time;durP1;ratioP1;P1;durP2;ratioP2;P2;SDS_P1;SDS_P2;PMS_P1;PMS_P2;Temp;Humidity;BMP_temperature;BMP_pressure;BME280_temperature;BME280_humidity;BME280_pressure;Samples;Min_cycle;Max_cycle;Signal;HPM_P1;HPM_P2
2024/03/02 00:03:54;;;;;;;11.20;4.55;;;2.80;99.90;;;;;;20880022;28;20241;-41
2024/03/02 00:13:56;;;;;;;1.50;0.90;;;3.00;99.90;;;;;;20858336;28;21615;-40
2024/03/02 00:24:00;;;;;;;0.25;0.20;;;2.90;99.90;;;;;;20874603;28;20127;-41
2024/03/02 00:34:05;;;;;;;1.48;0.22;;;2.90;99.90;;;;;;20860385;28;20070;-41
2024/03/02 00:44:12;;;;;;;3.22;0.90;;;2.90;99.90;;;;;;20856770;28;20143;-41
2024/03/02 00:54:24;;;;;;;1.58;0.60;;;2.80;99.90;;;;;;20874710;28;20998;-40
2024/03/02 01:04:26;;;;;;;1.65;0.40;;;2.80;99.90;;;;;;20878651;28;20873;-40
2024/03/02 01:14:33;;;;;;;1.25;0.20;;;3.00;99.90;;;;;;20857467;28;20160;-40
2024/03/02 01:24:34;;;;;;;1.48;0.20;;;3.10;99.90;;;;;;20875061;28;20067;-40
2024/03/02 01:34:36;;;;;;;0.77;0.30;;;3.10;99.90;;;;;;20856120;28;20155;-40
2024/03/02 01:44:39;;;;;;;0.22;0.20;;;3.20;99.90;;;;;;20850747;28;20307;-40
2024/03/02 01:54:41;;;;;;;2.33;0.17;;;3.10;99.90;;;;;;20852845;28;20071;-40
2024/03/02 02:04:43;;;;;;;1.63;0.20;;;3.20;99.90;;;;;;20851526;28;20716;-40
2024/03/02 02:14:52;;;;;;;1.98;0.30;;;3.20;99.90;;;;;;20868389;28;20176;-40
2024/03/02 02:24:53;;;;;;;1.52;0.20;;;3.20;99.90;;;;;;20869198;28;20283;-40
2024/03/02 02:34:56;;;;;;;2.75;0.38;;;3.20;99.90;;;;;;20868275;28;20233;-40
2024/03/02 02:44:57;;;;;;;1.60;0.30;;;3.30;99.90;;;;;;20688485;28;20304;-39
2024/03/02 02:55:00;;;;;;;1.73;0.30;;;3.40;99.90;;;;;;20676889;28;20126;-40
2024/03/02 03:05:01;;;;;;;0.98;0.38;;;3.20;99.90;;;;;;20679335;28;20563;-51
2024/03/02 03:15:08;;;;;;;1.85;0.32;;;3.20;99.90;;;;;;20826323;28;20197;-39
2024/03/02 03:25:10;;;;;;;2.67;0.35;;;3.10;99.90;;;;;;20880840;28;20902;-41
2024/03/02 03:35:14;;;;;;;3.85;0.60;;;3.00;99.90;;;;;;20881315;28;20173;-40
2024/03/02 03:45:16;;;;;;;2.67;0.52;;;3.10;99.90;;;;;;20875454;28;20178;-41
2024/03/02 03:55:18;;;;;;;4.32;0.80;;;3.10;99.90;;;;;;20878134;28;20755;-39
2024/03/02 04:05:19;;;;;;;4.22;0.52;;;2.90;99.90;;;;;;20861775;28;20148;-40
2024/03/02 04:15:23;;;;;;;1.83;0.30;;;2.80;99.90;;;;;;20877227;28;20164;-39
2024/03/02 04:25:24;;;;;;;1.25;0.32;;;3.00;99.90;;;;;;20877969;28;20492;-40
2024/03/02 04:35:26;;;;;;;2.88;0.47;;;3.10;99.90;;;;;;20876113;28;20317;-40
2024/03/02 04:45:28;;;;;;;1.52;0.30;;;3.10;99.90;;;;;;20856285;28;20109;-39
2024/03/02 05:05:40;;;;;;;;;;;3.20;99.90;;;;;;20875948;28;20064;-39
2024/03/02 05:15:43;;;;;;;1.85;0.20;;;3.30;99.90;;;;;;20851549;28;20373;-40
2024/03/02 05:25:45;;;;;;;2.92;0.40;;;3.10;99.90;;;;;;20872852;28;20706;-39
2024/03/02 05:35:47;;;;;;;2.55;0.38;;;3.00;99.90;;;;;;20869871;28;20191;-39
2024/03/02 05:45:49;;;;;;;1.33;0.40;;;3.10;99.90;;;;;;20868635;28;20152;-39
2024/03/02 05:55:55;;;;;;;2.03;0.30;;;3.00;99.90;;;;;;20838506;28;20170;-39
2024/03/02 06:05:57;;;;;;;1.02;0.30;;;3.00;99.90;;;;;;20865149;28;20166;-39
2024/03/02 06:15:59;;;;;;;1.25;0.10;;;3.10;99.90;;;;;;20869281;28;20155;-39
2024/03/02 06:26:02;;;;;;;0.82;0.20;;;3.30;99.90;;;;;;20848269;28;20075;-40
2024/03/02 06:36:04;;;;;;;1.88;0.38;;;3.40;99.90;;;;;;20865914;28;20128;-39
2024/03/02 06:46:09;;;;;;;3.13;0.30;;;3.60;99.90;;;;;;20864760;28;20889;-39
2024/03/02 06:56:11;;;;;;;2.45;0.25;;;3.70;99.90;;;;;;20873989;28;20810;-39
2024/03/02 07:06:12;;;;;;;1.50;0.20;;;3.80;99.90;;;;;;20883518;28;20098;-39
2024/03/02 07:16:32;;;;;;;0.60;0.20;;;4.00;99.90;;;;;;20877336;28;20071;-39
2024/03/02 07:26:34;;;;;;;1.37;0.20;;;4.30;99.90;;;;;;20876154;28;20165;-40
2024/03/02 07:36:36;;;;;;;1.23;0.35;;;4.40;99.90;;;;;;20872000;28;20161;-41
2024/03/02 07:46:38;;;;;;;4.38;0.35;;;4.50;99.90;;;;;;20874947;28;20498;-41
2024/03/02 07:56:40;;;;;;;3.50;1.75;;;4.60;99.90;;;;;;20874923;28;20154;-39
2024/03/02 08:06:42;;;;;;;1.25;0.43;;;4.70;99.90;;;;;;20878020;28;21253;-41
2024/03/02 08:16:45;;;;;;;1.60;0.30;;;4.80;99.90;;;;;;20874026;28;20162;-40
2024/03/02 08:26:47;;;;;;;6.35;0.60;;;4.80;99.90;;;;;;20872017;28;20166;-40
2024/03/02 08:36:49;;;;;;;3.55;0.60;;;4.70;99.90;;;;;;20871216;28;20130;-41
2024/03/02 08:46:51;;;;;;;3.55;0.50;;;4.60;99.90;;;;;;20871839;28;20205;-42
2024/03/02 08:56:53;;;;;;;5.30;1.27;;;4.40;99.90;;;;;;20869532;28;20036;-41
2024/03/02 09:06:55;;;;;;;3.15;0.63;;;4.30;99.90;;;;;;20870702;28;21178;-42
2024/03/02 09:16:57;;;;;;;3.60;2.10;;;4.20;99.90;;;;;;20874385;28;21046;-43
2024/03/02 09:27:02;;;;;;;3.45;1.20;;;4.20;99.90;;;;;;20871338;28;20063;-42
2024/03/02 09:37:04;;;;;;;0.80;0.47;;;4.20;99.90;;;;;;20868048;28;20169;-42
2024/03/02 09:47:10;;;;;;;2.22;0.40;;;4.30;99.90;;;;;;20865679;28;21606;-45
2024/03/02 09:57:12;;;;;;;1.30;0.38;;;4.90;99.90;;;;;;20866201;28;20067;-42
2024/03/02 10:07:18;;;;;;;1.42;0.70;;;4.80;99.90;;;;;;20868027;28;20170;-43
2024/03/02 10:17:20;;;;;;;0.47;0.10;;;5.20;99.90;;;;;;20866577;28;20162;-41
2024/03/02 10:27:27;;;;;;;0.30;0.08;;;5.20;99.90;;;;;;20869717;28;20201;-42
2024/03/02 10:37:29;;;;;;;0.15;0.00;;;5.50;99.90;;;;;;20866871;28;20174;-46
2024/03/02 10:47:34;;;;;;;0.20;0.00;;;5.50;99.90;;;;;;20866479;28;20252;-42
2024/03/02 10:57:53;;;;;;;0.00;0.00;;;6.10;99.90;;;;;;20849821;28;20249;-44
2024/03/02 11:08:04;;;;;;;0.93;0.10;;;7.10;99.90;;;;;;20864405;28;21082;-43
2024/03/02 11:18:08;;;;;;;0.30;0.10;;;7.50;99.90;;;;;;20862722;28;20259;-43
2024/03/02 11:28:10;;;;;;;1.20;0.17;;;7.30;99.90;;;;;;20866078;28;20162;-41
2024/03/02 11:38:12;;;;;;;0.40;0.10;;;7.00;99.90;;;;;;20852867;28;20848;-43
2024/03/02 11:48:15;;;;;;;1.58;0.50;;;7.00;99.90;;;;;;20858310;28;20203;-43
2024/03/02 11:58:23;;;;;;;0.20;0.00;;;6.70;99.90;;;;;;20858714;28;21241;-42
2024/03/02 12:08:26;;;;;;;0.20;0.00;;;7.00;99.90;;;;;;20877389;28;20067;-42
2024/03/02 12:18:28;;;;;;;0.47;0.30;;;6.40;99.90;;;;;;20872690;28;20125;-41
2024/03/02 12:28:30;;;;;;;3.88;3.20;;;6.40;99.90;;;;;;20875201;28;20167;-43
2024/03/02 12:38:32;;;;;;;6.97;4.82;;;6.80;99.90;;;;;;20873369;28;20079;-44
2024/03/02 12:48:36;;;;;;;1.35;1.25;;;6.90;99.90;;;;;;20878424;28;20122;-41
2024/03/02 12:58:43;;;;;;;1.20;0.10;;;6.60;99.90;;;;;;20872862;28;20110;-41
2024/03/02 13:08:46;;;;;;;1.27;0.30;;;6.10;99.90;;;;;;20870724;28;20189;-44
2024/03/02 13:18:49;;;;;;;0.68;0.30;;;5.90;99.90;;;;;;20869866;28;20174;-41
2024/03/02 13:28:51;;;;;;;1.63;0.10;;;5.90;99.90;;;;;;20871328;28;20112;-41
2024/03/02 13:38:58;;;;;;;1.42;0.30;;;5.70;99.90;;;;;;20870893;28;21197;-42
2024/03/02 13:48:59;;;;;;;3.40;0.35;;;5.90;99.90;;;;;;20870976;28;21568;-41
2024/03/02 13:59:02;;;;;;;1.75;0.10;;;6.00;99.90;;;;;;20864769;28;20048;-42
2024/03/02 14:09:03;;;;;;;0.50;0.20;;;6.20;99.90;;;;;;20861554;28;20883;-42
2024/03/02 14:19:09;;;;;;;1.35;0.20;;;6.00;99.90;;;;;;20868918;28;20134;-45
2024/03/02 14:29:12;;;;;;;0.25;0.13;;;5.80;99.90;;;;;;20864800;28;20622;-42
2024/03/02 14:39:14;;;;;;;0.35;0.15;;;5.30;99.90;;;;;;20865441;28;20269;-44
2024/03/02 14:49:17;;;;;;;0.38;0.10;;;4.90;99.90;;;;;;20842367;28;20264;-42
2024/03/02 14:59:19;;;;;;;0.10;0.00;;;4.70;99.90;;;;;;20866363;28;20040;-43
2024/03/02 15:09:21;;;;;;;1.27;0.10;;;4.40;99.90;;;;;;20863214;28;20511;-42
2024/03/02 15:19:23;;;;;;;9.35;6.10;;;4.20;99.90;;;;;;20874188;28;20252;-42
2024/03/02 15:29:29;;;;;;;0.73;0.28;;;3.90;99.90;;;;;;20881217;28;21275;-42
2024/03/02 15:39:32;;;;;;;0.15;0.15;;;3.70;99.90;;;;;;20880008;28;20197;-41
2024/03/02 15:49:34;;;;;;;0.93;0.60;;;3.80;99.90;;;;;;20878569;28;20236;-42
2024/03/02 15:59:38;;;;;;;1.23;0.40;;;3.80;99.90;;;;;;20878693;28;21105;-42
2024/03/02 16:09:40;;;;;;;2.80;1.27;;;3.90;99.90;;;;;;20875618;28;20715;-41
2024/03/02 16:19:42;;;;;;;1.50;1.05;;;3.70;99.90;;;;;;20879594;28;20241;-44
2024/03/02 16:29:46;;;;;;;3.55;1.30;;;3.60;99.90;;;;;;20877100;28;21293;-41
2024/03/02 16:39:48;;;;;;;3.15;2.10;;;3.60;99.90;;;;;;20856826;28;20131;-43
2024/03/02 16:49:53;;;;;;;1.73;1.08;;;3.30;99.90;;;;;;20880140;28;20158;-43
2024/03/02 17:00:01;;;;;;;2.22;1.60;;;3.20;99.90;;;;;;20879470;28;21139;-44
2024/03/02 17:10:04;;;;;;;1.90;1.00;;;3.20;99.90;;;;;;20876666;28;20059;-42
2024/03/02 17:20:09;;;;;;;2.08;0.80;;;3.30;99.90;;;;;;20875656;28;20158;-44
2024/03/02 17:30:11;;;;;;;1.40;1.08;;;3.50;99.90;;;;;;20876061;28;20105;-42
2024/03/02 17:40:13;;;;;;;3.53;1.45;;;3.50;99.90;;;;;;20873908;28;20216;-44
2024/03/02 17:50:17;;;;;;;67.30;3.95;;;3.30;99.90;;;;;;20670434;28;21131;-42
2024/03/02 18:00:20;;;;;;;62.53;3.60;;;3.30;99.90;;;;;;20612761;28;20215;-42
2024/03/02 18:10:22;;;;;;;1.33;0.75;;;3.20;99.90;;;;;;20611774;28;20076;-41
2024/03/02 18:20:24;;;;;;;0.82;0.55;;;3.20;99.90;;;;;;20821956;28;21075;-41
2024/03/02 18:30:26;;;;;;;2.70;2.00;;;2.90;99.90;;;;;;20873726;28;20154;-44
2024/03/02 18:40:28;;;;;;;1.33;0.70;;;2.60;99.90;;;;;;20871033;28;20846;-43
2024/03/02 18:50:30;;;;;;;0.20;0.20;;;2.50;99.90;;;;;;20889565;28;20186;-41
2024/03/02 19:00:31;;;;;;;1.90;1.13;;;2.40;99.90;;;;;;20878974;28;20134;-42
2024/03/02 19:10:33;;;;;;;13.52;8.32;;;2.50;99.90;;;;;;20895205;28;20126;-42
2024/03/02 19:20:35;;;;;;;21.73;14.43;;;2.40;99.90;;;;;;20900946;28;20130;-44
2024/03/02 19:30:37;;;;;;;6.63;4.53;;;2.50;99.90;;;;;;20896777;28;20137;-41
2024/03/02 19:40:39;;;;;;;3.30;2.40;;;2.60;99.90;;;;;;20898205;28;20820;-41
2024/03/02 19:50:44;;;;;;;18.98;3.90;;;2.70;99.90;;;;;;20894692;28;20165;-41
2024/03/02 20:00:46;;;;;;;311.30;11.70;;;2.90;99.90;;;;;;20854094;28;21611;-42
2024/03/02 20:10:48;;;;;;;283.45;9.93;;;3.10;99.90;;;;;;20882061;28;20127;-44
2024/03/02 20:20:50;;;;;;;26.92;1.35;;;3.30;99.90;;;;;;20856955;28;20694;-40
2024/03/02 20:30:52;;;;;;;0.50;0.30;;;3.30;99.90;;;;;;20881199;28;21220;-43
2024/03/02 20:40:55;;;;;;;5.95;1.35;;;3.20;99.90;;;;;;20878061;28;21006;-41
2024/03/02 20:50:56;;;;;;;8.30;2.92;;;3.20;99.90;;;;;;20880813;28;20213;-41
2024/03/02 21:00:58;;;;;;;401.67;16.45;;;3.30;99.90;;;;;;20876683;28;20455;-41
2024/03/02 21:11:03;;;;;;;1.77;1.15;;;3.30;99.90;;;;;;20872542;28;20781;-45
2024/03/02 21:21:08;;;;;;;2.95;1.55;;;3.30;99.90;;;;;;20879202;28;20208;-42
2024/03/02 21:31:16;;;;;;;423.42;18.00;;;3.30;99.90;;;;;;20877503;28;20232;-41
2024/03/02 21:41:20;;;;;;;79.68;5.28;;;3.40;99.90;;;;;;20854364;28;20173;-43
2024/03/02 21:51:22;;;;;;;33.30;6.55;;;3.40;99.90;;;;;;20876529;28;20466;-41
2024/03/02 22:01:26;;;;;;;10.27;4.78;;;3.40;99.90;;;;;;20871451;28;20126;-42
2024/03/02 22:11:28;;;;;;;197.18;13.43;;;3.20;99.90;;;;;;20872953;28;20067;-41
2024/03/02 22:21:32;;;;;;;4.82;2.83;;;3.20;99.90;;;;;;20874384;28;21188;-44
2024/03/02 22:31:34;;;;;;;6.43;1.90;;;3.10;99.90;;;;;;20871996;28;20517;-41
2024/03/02 22:41:36;;;;;;;3.13;1.15;;;2.80;99.90;;;;;;20868940;28;20079;-41
2024/03/02 22:51:39;;;;;;;3.20;0.98;;;2.60;99.90;;;;;;20869569;28;20127;-42
2024/03/02 23:01:43;;;;;;;6.03;2.03;;;2.70;99.90;;;;;;20866772;28;20857;-41
2024/03/02 23:11:45;;;;;;;8.32;5.13;;;2.70;99.90;;;;;;20844760;28;20256;-40
2024/03/02 23:21:51;;;;;;;12.85;6.85;;;2.80;99.90;;;;;;20844471;28;20732;-41
2024/03/02 23:31:52;;;;;;;4.85;2.85;;;2.90;99.90;;;;;;20847984;28;20170;-42
2024/03/02 23:41:54;;;;;;;6.18;2.70;;;3.00;99.90;;;;;;20861746;28;20150;-41
2024/03/02 23:51:56;;;;;;;7.22;4.13;;;2.80;99.90;;;;;;20860983;28;20260;-40
